createdAt,value
2019-04-27T00:20:33.241Z,7.05
2019-04-27T00:50:35.829Z,4.90
2019-04-27T01:20:38.799Z,7.42
2019-04-27T01:50:41.452Z,7.53
2019-04-27T02:20:44.517Z,8.23
2019-04-27T02:50:49.771Z,6.90
2019-04-27T03:20:51.781Z,9.28
2019-04-27T03:50:54.405Z,9.30
2019-04-27T04:20:57.044Z,10.82
2019-04-27T04:51:00.059Z,12.63
2019-04-27T05:21:02.883Z,10.28
2019-04-27T05:51:05.444Z,5.60
2019-04-27T06:21:09.614Z,8.23
2019-04-27T06:51:12.382Z,7.55
2019-04-27T07:21:18.746Z,6.78
2019-04-27T07:51:31.167Z,7.42
2019-04-27T08:21:23.534Z,6.25
2019-04-27T08:51:26.187Z,6.92
2019-04-27T09:21:29.353Z,8.83
2019-04-27T09:51:31.913Z,10.78
2019-04-27T10:21:34.522Z,10.58
2019-04-27T10:51:37.151Z,12.82
2019-04-27T11:21:39.753Z,14.20
2019-04-27T11:51:42.361Z,11.05
2019-04-27T12:21:46.389Z,11.18
2019-04-27T12:51:49.011Z,12.07
2019-04-27T13:21:51.731Z,7.40
2019-04-27T13:51:55.651Z,8.43
2019-04-27T14:21:59.649Z,7.22
2019-04-27T14:52:02.265Z,4.20
2019-04-27T15:22:04.890Z,3.33
2019-04-27T15:52:09.091Z,4.50
2019-04-27T16:22:11.796Z,5.17
2019-04-27T16:52:15.909Z,8.03
2019-04-27T17:22:20.203Z,6.58
2019-04-27T17:52:22.913Z,9.53
2019-04-27T18:22:25.540Z,9.30
2019-04-27T18:52:28.258Z,15.20
2019-04-27T19:22:30.947Z,16.73
2019-04-27T19:52:33.613Z,17.55
2019-04-27T20:22:36.309Z,21.33
2019-04-27T20:52:38.963Z,22.87
2019-04-27T21:22:41.774Z,24.32
2019-04-27T21:52:45.581Z,26.33
2019-04-27T22:22:48.691Z,28.47
2019-04-27T22:52:51.366Z,31.02
2019-04-27T23:22:54.290Z,32.03
2019-04-27T23:52:57.015Z,31.37
